sensor_id;sensor_type;location;lat;lon;timestamp;pressure;altitude;pressure_sealevel;temperature;humidity
53900;BME280;40509;32.858;-116.858;2023-08-21T00:01:56;96567.38;;;26.52;64.80
53900;BME280;40509;32.858;-116.858;2023-08-21T00:04:23;96565.63;;;26.65;64.37
53900;BME280;40509;32.858;-116.858;2023-08-21T00:06:50;96575.88;;;26.54;64.08
53900;BME280;40509;32.858;-116.858;2023-08-21T00:09:16;96579.78;;;26.52;64.49
53900;BME280;40509;32.858;-116.858;2023-08-21T00:11:44;96583.41;;;26.57;64.09
53900;BME280;40509;32.858;-116.858;2023-08-21T00:14:13;96592.53;;;26.62;63.72
53900;BME280;40509;32.858;-116.858;2023-08-21T00:16:40;96596.78;;;26.63;63.79
53900;BME280;40509;32.858;-116.858;2023-08-21T00:19:07;96604.88;;;26.74;62.96
53900;BME280;40509;32.858;-116.858;2023-08-21T00:21:34;96612.03;;;26.67;63.28
53900;BME280;40509;32.858;-116.858;2023-08-21T00:24:01;96623.47;;;26.61;63.20
53900;BME280;40509;32.858;-116.858;2023-08-21T00:26:27;96613.28;;;26.65;63.28
53900;BME280;40509;32.858;-116.858;2023-08-21T00:28:54;96618.78;;;26.63;62.88
53900;BME280;40509;32.858;-116.858;2023-08-21T00:31:21;96627.91;;;26.67;63.13
53900;BME280;40509;32.858;-116.858;2023-08-21T00:33:48;96630.78;;;26.66;62.95
53900;BME280;40509;32.858;-116.858;2023-08-21T00:36:15;96633.84;;;26.63;62.96
53900;BME280;40509;32.858;-116.858;2023-08-21T00:38:42;96649.72;;;26.63;62.58
53900;BME280;40509;32.858;-116.858;2023-08-21T00:41:09;96651.13;;;26.65;62.27
53900;BME280;40509;32.858;-116.858;2023-08-21T00:43:36;96660.53;;;26.61;62.72
53900;BME280;40509;32.858;-116.858;2023-08-21T00:46:03;96673.53;;;26.63;62.65
53900;BME280;40509;32.858;-116.858;2023-08-21T00:48:30;96677.81;;;26.64;62.41
53900;BME280;40509;32.858;-116.858;2023-08-21T00:50:58;96682.31;;;26.63;62.37
53900;BME280;40509;32.858;-116.858;2023-08-21T00:53:25;96687.16;;;26.66;61.70
53900;BME280;40509;32.858;-116.858;2023-08-21T00:55:53;96699.59;;;26.72;61.63
53900;BME280;40509;32.858;-116.858;2023-08-21T00:58:20;96702.03;;;26.67;61.58
53900;BME280;40509;32.858;-116.858;2023-08-21T01:00:47;96711.78;;;26.67;61.83
53900;BME280;40509;32.858;-116.858;2023-08-21T01:03:16;96713.63;;;26.66;61.57
53900;BME280;40509;32.858;-116.858;2023-08-21T01:05:43;96726.06;;;26.66;61.27
53900;BME280;40509;32.858;-116.858;2023-08-21T01:08:15;96727.66;;;26.67;61.31
53900;BME280;40509;32.858;-116.858;2023-08-21T01:10:50;96742.13;;;26.64;61.29
53900;BME280;40509;32.858;-116.858;2023-08-21T01:15:45;96762.06;;;26.73;60.60
53900;BME280;40509;32.858;-116.858;2023-08-21T01:18:13;96764.31;;;26.70;60.88
53900;BME280;40509;32.858;-116.858;2023-08-21T01:20:41;96771.06;;;26.72;60.81
53900;BME280;40509;32.858;-116.858;2023-08-21T01:23:09;96782.88;;;26.63;61.06
53900;BME280;40509;32.858;-116.858;2023-08-21T01:25:36;96788.56;;;26.67;61.01
53900;BME280;40509;32.858;-116.858;2023-08-21T01:28:04;96800.97;;;26.73;60.62
53900;BME280;40509;32.858;-116.858;2023-08-21T01:30:31;96809.72;;;26.67;60.59
53900;BME280;40509;32.858;-116.858;2023-08-21T01:33:01;96819.72;;;26.65;60.30
53900;BME280;40509;32.858;-116.858;2023-08-21T01:35:33;96821.16;;;26.67;60.37
53900;BME280;40509;32.858;-116.858;2023-08-21T01:38:02;96836.19;;;26.73;60.11
53900;BME280;40509;32.858;-116.858;2023-08-21T01:40:29;96840.06;;;26.71;59.94
53900;BME280;40509;32.858;-116.858;2023-08-21T01:42:59;96846.22;;;26.71;59.76
53900;BME280;40509;32.858;-116.858;2023-08-21T01:45:27;96865.94;;;26.75;59.89
53900;BME280;40509;32.858;-116.858;2023-08-21T01:47:54;96875.50;;;26.70;59.88
53900;BME280;40509;32.858;-116.858;2023-08-21T01:50:22;96889.56;;;26.70;59.63
53900;BME280;40509;32.858;-116.858;2023-08-21T01:52:49;96902.81;;;26.70;59.77
53900;BME280;40509;32.858;-116.858;2023-08-21T01:55:16;96900.34;;;26.69;59.74
53900;BME280;40509;32.858;-116.858;2023-08-21T01:57:42;96911.38;;;26.72;59.23
53900;BME280;40509;32.858;-116.858;2023-08-21T02:00:10;96916.84;;;26.71;59.15
53900;BME280;40509;32.858;-116.858;2023-08-21T02:02:44;96926.81;;;26.69;59.37
53900;BME280;40509;32.858;-116.858;2023-08-21T02:05:11;96930.50;;;26.74;58.80
53900;BME280;40509;32.858;-116.858;2023-08-21T02:07:38;96945.34;;;26.69;58.98
53900;BME280;40509;32.858;-116.858;2023-08-21T02:10:05;96968.38;;;26.68;58.65
53900;BME280;40509;32.858;-116.858;2023-08-21T02:12:33;96997.09;;;26.65;58.92
53900;BME280;40509;32.858;-116.858;2023-08-21T02:15:00;97001.38;;;26.72;58.48
53900;BME280;40509;32.858;-116.858;2023-08-21T02:17:31;97010.31;;;26.65;58.78
53900;BME280;40509;32.858;-116.858;2023-08-21T02:19:59;97034.53;;;26.75;58.53
53900;BME280;40509;32.858;-116.858;2023-08-21T02:22:26;97045.16;;;26.68;58.59
53900;BME280;40509;32.858;-116.858;2023-08-21T02:24:52;97059.78;;;26.64;58.53
53900;BME280;40509;32.858;-116.858;2023-08-21T02:27:20;97063.06;;;26.66;58.25
53900;BME280;40509;32.858;-116.858;2023-08-21T02:29:47;97079.94;;;26.45;58.73
53900;BME280;40509;32.858;-116.858;2023-08-21T02:32:14;97088.31;;;26.49;58.65
53900;BME280;40509;32.858;-116.858;2023-08-21T02:34:41;97104.41;;;26.47;58.46
53900;BME280;40509;32.858;-116.858;2023-08-21T02:37:08;97107.25;;;26.39;58.26
53900;BME280;40509;32.858;-116.858;2023-08-21T02:39:35;97125.56;;;26.34;58.82
53900;BME280;40509;32.858;-116.858;2023-08-21T02:42:02;97129.84;;;26.41;58.10
53900;BME280;40509;32.858;-116.858;2023-08-21T02:44:30;97133.47;;;26.20;58.57
53900;BME280;40509;32.858;-116.858;2023-08-21T02:46:57;97146.72;;;26.34;58.32
53900;BME280;40509;32.858;-116.858;2023-08-21T02:49:24;97168.53;;;26.42;57.93
53900;BME280;40509;32.858;-116.858;2023-08-21T02:51:51;97172.78;;;26.43;57.77
53900;BME280;40509;32.858;-116.858;2023-08-21T02:54:19;97183.81;;;26.61;56.85
53900;BME280;40509;32.858;-116.858;2023-08-21T02:56:47;97200.41;;;26.14;57.43
53900;BME280;40509;32.858;-116.858;2023-08-21T02:59:14;97209.69;;;25.97;57.56
53900;BME280;40509;32.858;-116.858;2023-08-21T03:01:41;97216.53;;;25.84;57.87
53900;BME280;40509;32.858;-116.858;2023-08-21T03:04:09;97220.16;;;25.77;57.79
53900;BME280;40509;32.858;-116.858;2023-08-21T03:06:36;97241.88;;;25.72;57.72
53900;BME280;40509;32.858;-116.858;2023-08-21T03:09:03;97263.22;;;25.70;57.62
53900;BME280;40509;32.858;-116.858;2023-08-21T03:11:30;97270.19;;;25.78;57.24
53900;BME280;40509;32.858;-116.858;2023-08-21T03:13:57;97284.53;;;25.62;57.36
53900;BME280;40509;32.858;-116.858;2023-08-21T03:16:24;97297.69;;;25.55;57.48
53900;BME280;40509;32.858;-116.858;2023-08-21T03:18:55;97307.06;;;25.58;57.36
53900;BME280;40509;32.858;-116.858;2023-08-21T03:21:23;97306.34;;;25.71;57.15
53900;BME280;40509;32.858;-116.858;2023-08-21T03:23:51;97308.69;;;25.59;57.04
53900;BME280;40509;32.858;-116.858;2023-08-21T03:26:18;97326.53;;;25.50;57.27
53900;BME280;40509;32.858;-116.858;2023-08-21T03:28:45;97346.22;;;25.48;56.91
53900;BME280;40509;32.858;-116.858;2023-08-21T03:31:12;97337.72;;;25.52;56.95
53900;BME280;40509;32.858;-116.858;2023-08-21T03:33:39;97359.09;;;25.57;56.74
53900;BME280;40509;32.858;-116.858;2023-08-21T03:36:07;97360.75;;;25.58;56.79
53900;BME280;40509;32.858;-116.858;2023-08-21T03:38:35;97378.41;;;25.58;56.52
53900;BME280;40509;32.858;-116.858;2023-08-21T03:41:02;97399.81;;;25.41;56.79
53900;BME280;40509;32.858;-116.858;2023-08-21T03:43:29;97403.72;;;25.46;56.91
53900;BME280;40509;32.858;-116.858;2023-08-21T03:45:56;97417.63;;;25.54;56.46
53900;BME280;40509;32.858;-116.858;2023-08-21T03:48:24;97433.84;;;25.51;56.86
53900;BME280;40509;32.858;-116.858;2023-08-21T03:50:50;97439.84;;;25.82;56.11
53900;BME280;40509;32.858;-116.858;2023-08-21T03:53:17;97451.84;;;25.84;56.07
53900;BME280;40509;32.858;-116.858;2023-08-21T03:55:45;97467.59;;;25.71;56.26
53900;BME280;40509;32.858;-116.858;2023-08-21T03:58:13;97469.19;;;25.65;56.42
53900;BME280;40509;32.858;-116.858;2023-08-21T04:00:40;97476.41;;;25.78;56.40
53900;BME280;40509;32.858;-116.858;2023-08-21T04:03:07;97489.88;;;25.83;56.09
53900;BME280;40509;32.858;-116.858;2023-08-21T04:05:34;97496.56;;;25.79;56.19
53900;BME280;40509;32.858;-116.858;2023-08-21T04:08:01;97506.22;;;25.72;56.39
53900;BME280;40509;32.858;-116.858;2023-08-21T04:10:28;97513.66;;;25.62;56.62
53900;BME280;40509;32.858;-116.858;2023-08-21T04:12:56;97522.41;;;25.84;55.95
53900;BME280;40509;32.858;-116.858;2023-08-21T04:15:25;97532.25;;;25.68;56.11
53900;BME280;40509;32.858;-116.858;2023-08-21T04:17:52;97539.53;;;25.66;56.00
53900;BME280;40509;32.858;-116.858;2023-08-21T04:20:20;97546.56;;;25.59;55.87
53900;BME280;40509;32.858;-116.858;2023-08-21T04:22:49;97564.44;;;25.79;55.44
53900;BME280;40509;32.858;-116.858;2023-08-21T04:25:16;97577.25;;;25.75;55.31
53900;BME280;40509;32.858;-116.858;2023-08-21T04:27:43;97585.88;;;25.47;56.94
53900;BME280;40509;32.858;-116.858;2023-08-21T04:30:10;97600.25;;;25.45;56.91
53900;BME280;40509;32.858;-116.858;2023-08-21T04:32:38;97614.88;;;25.77;54.88
53900;BME280;40509;32.858;-116.858;2023-08-21T04:35:05;97641.13;;;25.79;54.76
53900;BME280;40509;32.858;-116.858;2023-08-21T04:37:34;97639.22;;;25.87;55.06
53900;BME280;40509;32.858;-116.858;2023-08-21T04:40:02;97629.00;;;25.84;55.07
53900;BME280;40509;32.858;-116.858;2023-08-21T04:42:29;97644.59;;;25.79;55.40
53900;BME280;40509;32.858;-116.858;2023-08-21T04:44:57;97654.81;;;25.82;55.66
53900;BME280;40509;32.858;-116.858;2023-08-21T04:47:26;97665.38;;;25.82;55.02
53900;BME280;40509;32.858;-116.858;2023-08-21T04:49:56;97667.75;;;25.77;55.80
53900;BME280;40509;32.858;-116.858;2023-08-21T04:52:23;97674.31;;;25.81;55.12
53900;BME280;40509;32.858;-116.858;2023-08-21T04:54:51;97671.25;;;25.78;55.75
53900;BME280;40509;32.858;-116.858;2023-08-21T04:57:18;97675.34;;;25.80;55.00
53900;BME280;40509;32.858;-116.858;2023-08-21T04:59:47;97665.31;;;25.75;55.70
53900;BME280;40509;32.858;-116.858;2023-08-21T05:02:14;97672.84;;;25.79;55.41
53900;BME280;40509;32.858;-116.858;2023-08-21T05:04:41;97680.78;;;25.79;55.44
53900;BME280;40509;32.858;-116.858;2023-08-21T05:07:09;97682.34;;;25.73;55.70
53900;BME280;40509;32.858;-116.858;2023-08-21T05:09:36;97681.63;;;25.79;55.09
53900;BME280;40509;32.858;-116.858;2023-08-21T05:12:07;97695.22;;;25.76;55.63
53900;BME280;40509;32.858;-116.858;2023-08-21T05:14:34;97694.38;;;25.75;55.50
53900;BME280;40509;32.858;-116.858;2023-08-21T05:17:01;97698.22;;;25.73;55.48
53900;BME280;40509;32.858;-116.858;2023-08-21T05:19:27;97682.00;;;25.76;55.47
53900;BME280;40509;32.858;-116.858;2023-08-21T05:21:54;97692.19;;;25.79;55.53
53900;BME280;40509;32.858;-116.858;2023-08-21T05:24:22;97692.28;;;25.86;55.29
53900;BME280;40509;32.858;-116.858;2023-08-21T05:26:56;97695.84;;;25.78;55.38
53900;BME280;40509;32.858;-116.858;2023-08-21T05:29:26;97695.84;;;25.78;55.17
53900;BME280;40509;32.858;-116.858;2023-08-21T05:31:53;97694.19;;;25.77;55.40
53900;BME280;40509;32.858;-116.858;2023-08-21T05:34:21;97701.78;;;25.80;55.30
53900;BME280;40509;32.858;-116.858;2023-08-21T05:36:48;97709.34;;;25.83;55.03
53900;BME280;40509;32.858;-116.858;2023-08-21T05:39:16;97713.44;;;25.86;55.07
53900;BME280;40509;32.858;-116.858;2023-08-21T05:41:43;97718.28;;;25.82;55.12
53900;BME280;40509;32.858;-116.858;2023-08-21T05:44:11;97717.66;;;25.80;55.17
53900;BME280;40509;32.858;-116.858;2023-08-21T05:46:39;97713.72;;;25.76;55.26
53900;BME280;40509;32.858;-116.858;2023-08-21T05:49:07;97720.63;;;25.77;55.28
53900;BME280;40509;32.858;-116.858;2023-08-21T05:51:34;97727.84;;;25.83;54.89
53900;BME280;40509;32.858;-116.858;2023-08-21T05:54:01;97725.13;;;25.77;55.22
53900;BME280;40509;32.858;-116.858;2023-08-21T05:56:29;97732.25;;;25.76;55.10
53900;BME280;40509;32.858;-116.858;2023-08-21T05:58:56;97736.31;;;25.79;55.01
53900;BME280;40509;32.858;-116.858;2023-08-21T06:01:25;97739.97;;;25.78;54.95
53900;BME280;40509;32.858;-116.858;2023-08-21T06:03:52;97745.69;;;25.81;54.86
53900;BME280;40509;32.858;-116.858;2023-08-21T06:06:44;97746.72;;;25.80;54.94
53900;BME280;40509;32.858;-116.858;2023-08-21T06:09:12;97746.88;;;25.79;55.19
53900;BME280;40509;32.858;-116.858;2023-08-21T06:11:39;97752.75;;;25.74;55.11
53900;BME280;40509;32.858;-116.858;2023-08-21T06:14:07;97758.22;;;25.72;55.13
53900;BME280;40509;32.858;-116.858;2023-08-21T06:16:34;97760.66;;;25.74;55.06
53900;BME280;40509;32.858;-116.858;2023-08-21T06:19:01;97761.66;;;25.73;55.04
53900;BME280;40509;32.858;-116.858;2023-08-21T06:21:27;97759.59;;;25.68;55.13
53900;BME280;40509;32.858;-116.858;2023-08-21T06:23:55;97754.38;;;25.75;54.97
53900;BME280;40509;32.858;-116.858;2023-08-21T06:26:21;97752.28;;;25.70;54.99
53900;BME280;40509;32.858;-116.858;2023-08-21T06:28:48;97761.31;;;25.76;54.89
53900;BME280;40509;32.858;-116.858;2023-08-21T06:31:15;97761.22;;;25.69;55.14
53900;BME280;40509;32.858;-116.858;2023-08-21T06:33:42;97769.69;;;25.80;54.65
53900;BME280;40509;32.858;-116.858;2023-08-21T06:36:10;97770.25;;;25.75;54.81
53900;BME280;40509;32.858;-116.858;2023-08-21T06:38:37;97769.97;;;25.70;54.72
53900;BME280;40509;32.858;-116.858;2023-08-21T06:41:04;97774.53;;;25.76;54.67
53900;BME280;40509;32.858;-116.858;2023-08-21T06:43:31;97775.06;;;25.71;54.85
53900;BME280;40509;32.858;-116.858;2023-08-21T06:45:58;97769.78;;;25.71;54.90
53900;BME280;40509;32.858;-116.858;2023-08-21T06:48:25;97769.31;;;25.68;54.66
53900;BME280;40509;32.858;-116.858;2023-08-21T06:50:52;97783.28;;;25.77;54.48
53900;BME280;40509;32.858;-116.858;2023-08-21T06:53:19;97782.81;;;25.73;54.60
53900;BME280;40509;32.858;-116.858;2023-08-21T06:55:45;97785.28;;;25.74;54.67
53900;BME280;40509;32.858;-116.858;2023-08-21T06:58:13;97783.19;;;25.70;54.86
53900;BME280;40509;32.858;-116.858;2023-08-21T07:00:39;97784.00;;;25.70;54.58
53900;BME280;40509;32.858;-116.858;2023-08-21T07:03:07;97785.03;;;25.69;54.66
53900;BME280;40509;32.858;-116.858;2023-08-21T07:05:33;97782.38;;;25.69;54.72
53900;BME280;40509;32.858;-116.858;2023-08-21T07:08:01;97790.94;;;25.71;54.45
53900;BME280;40509;32.858;-116.858;2023-08-21T07:10:27;97788.47;;;25.70;54.65
53900;BME280;40509;32.858;-116.858;2023-08-21T07:12:55;97789.09;;;25.72;54.44
53900;BME280;40509;32.858;-116.858;2023-08-21T07:15:22;97788.09;;;25.73;54.29
53900;BME280;40509;32.858;-116.858;2023-08-21T07:17:49;97786.75;;;25.77;54.34
53900;BME280;40509;32.858;-116.858;2023-08-21T07:20:17;97790.13;;;25.71;54.39
53900;BME280;40509;32.858;-116.858;2023-08-21T07:22:44;97788.84;;;25.67;54.66
53900;BME280;40509;32.858;-116.858;2023-08-21T07:25:10;97801.69;;;25.70;54.57
53900;BME280;40509;32.858;-116.858;2023-08-21T07:27:37;97798.69;;;25.73;54.46
53900;BME280;40509;32.858;-116.858;2023-08-21T07:30:05;97808.06;;;25.75;54.31
53900;BME280;40509;32.858;-116.858;2023-08-21T07:32:33;97806.31;;;25.68;54.66
53900;BME280;40509;32.858;-116.858;2023-08-21T07:35:00;97807.53;;;25.65;54.43
53900;BME280;40509;32.858;-116.858;2023-08-21T07:37:27;97811.28;;;25.71;54.19
53900;BME280;40509;32.858;-116.858;2023-08-21T07:39:53;97811.97;;;25.65;54.55
53900;BME280;40509;32.858;-116.858;2023-08-21T07:42:24;97811.63;;;25.68;54.43
53900;BME280;40509;32.858;-116.858;2023-08-21T07:44:51;97815.81;;;25.62;54.56
53900;BME280;40509;32.858;-116.858;2023-08-21T07:47:17;97814.00;;;25.63;54.50
53900;BME280;40509;32.858;-116.858;2023-08-21T07:49:44;97816.34;;;25.57;54.50
53900;BME280;40509;32.858;-116.858;2023-08-21T07:52:11;97821.19;;;25.69;54.26
53900;BME280;40509;32.858;-116.858;2023-08-21T07:54:38;97833.13;;;25.65;54.29
53900;BME280;40509;32.858;-116.858;2023-08-21T07:57:05;97827.84;;;25.65;54.28
53900;BME280;40509;32.858;-116.858;2023-08-21T07:59:33;97839.78;;;25.61;54.31
53900;BME280;40509;32.858;-116.858;2023-08-21T08:01:59;97836.78;;;25.64;54.38
53900;BME280;40509;32.858;-116.858;2023-08-21T08:04:27;97833.69;;;25.60;54.36
53900;BME280;40509;32.858;-116.858;2023-08-21T08:06:54;97832.69;;;25.61;54.28
53900;BME280;40509;32.858;-116.858;2023-08-21T08:09:21;97844.88;;;25.62;54.32
53900;BME280;40509;32.858;-116.858;2023-08-21T08:11:48;97840.44;;;25.63;54.32
53900;BME280;40509;32.858;-116.858;2023-08-21T08:14:15;97841.63;;;25.60;54.20
53900;BME280;40509;32.858;-116.858;2023-08-21T08:16:43;97842.06;;;25.64;54.20
53900;BME280;40509;32.858;-116.858;2023-08-21T08:19:09;97854.00;;;25.59;54.34
53900;BME280;40509;32.858;-116.858;2023-08-21T08:21:36;97847.72;;;25.61;54.22
53900;BME280;40509;32.858;-116.858;2023-08-21T08:24:03;97851.00;;;25.63;54.08
53900;BME280;40509;32.858;-116.858;2023-08-21T08:26:30;97853.28;;;25.66;54.12
53900;BME280;40509;32.858;-116.858;2023-08-21T08:28:57;97847.34;;;25.64;54.14
53900;BME280;40509;32.858;-116.858;2023-08-21T08:31:25;97858.19;;;25.54;54.37
53900;BME280;40509;32.858;-116.858;2023-08-21T08:33:54;97853.72;;;25.54;54.24
53900;BME280;40509;32.858;-116.858;2023-08-21T08:36:20;97857.81;;;25.57;54.03
53900;BME280;40509;32.858;-116.858;2023-08-21T08:38:48;97857.66;;;25.58;54.02
53900;BME280;40509;32.858;-116.858;2023-08-21T08:41:24;97854.19;;;25.58;54.08
53900;BME280;40509;32.858;-116.858;2023-08-21T08:43:52;97866.88;;;25.63;54.10
53900;BME280;40509;32.858;-116.858;2023-08-21T08:46:23;97871.50;;;25.61;54.06
53900;BME280;40509;32.858;-116.858;2023-08-21T08:48:50;97873.22;;;25.53;54.23
53900;BME280;40509;32.858;-116.858;2023-08-21T08:51:18;97871.22;;;25.55;54.08
53900;BME280;40509;32.858;-116.858;2023-08-21T08:53:45;97881.16;;;25.53;53.98
53900;BME280;40509;32.858;-116.858;2023-08-21T08:56:12;97878.97;;;25.57;54.14
53900;BME280;40509;32.858;-116.858;2023-08-21T08:58:39;97876.84;;;25.52;54.20
53900;BME280;40509;32.858;-116.858;2023-08-21T09:01:09;97878.31;;;25.55;53.85
53900;BME280;40509;32.858;-116.858;2023-08-21T09:03:37;97885.16;;;25.49;54.15
53900;BME280;40509;32.858;-116.858;2023-08-21T09:06:04;97887.63;;;25.51;54.15
53900;BME280;40509;32.858;-116.858;2023-08-21T09:08:31;97896.03;;;25.54;53.93
53900;BME280;40509;32.858;-116.858;2023-08-21T09:11:01;97895.38;;;25.52;54.04
53900;BME280;40509;32.858;-116.858;2023-08-21T09:13:31;97900.47;;;25.54;53.74
53900;BME280;40509;32.858;-116.858;2023-08-21T09:15:59;97906.31;;;25.49;53.95
53900;BME280;40509;32.858;-116.858;2023-08-21T09:18:26;97910.94;;;25.47;53.98
53900;BME280;40509;32.858;-116.858;2023-08-21T09:20:53;97902.66;;;25.50;54.02
53900;BME280;40509;32.858;-116.858;2023-08-21T09:23:20;97913.38;;;25.49;54.06
53900;BME280;40509;32.858;-116.858;2023-08-21T09:25:47;97913.88;;;25.52;53.99
53900;BME280;40509;32.858;-116.858;2023-08-21T09:28:15;97908.22;;;25.55;53.75
53900;BME280;40509;32.858;-116.858;2023-08-21T09:33:13;97919.69;;;25.48;53.87
53900;BME280;40509;32.858;-116.858;2023-08-21T09:35:40;97915.50;;;25.53;53.84
53900;BME280;40509;32.858;-116.858;2023-08-21T09:38:08;97918.16;;;25.53;53.74
53900;BME280;40509;32.858;-116.858;2023-08-21T09:40:39;97915.88;;;25.50;53.67
53900;BME280;40509;32.858;-116.858;2023-08-21T09:43:10;97916.22;;;25.47;54.00
53900;BME280;40509;32.858;-116.858;2023-08-21T09:45:40;97919.03;;;25.46;53.86
53900;BME280;40509;32.858;-116.858;2023-08-21T09:48:07;97919.88;;;25.46;53.88
53900;BME280;40509;32.858;-116.858;2023-08-21T09:50:35;97929.13;;;25.42;54.07
53900;BME280;40509;32.858;-116.858;2023-08-21T09:53:02;97938.38;;;25.46;53.91
53900;BME280;40509;32.858;-116.858;2023-08-21T09:55:49;97938.81;;;25.50;53.73
53900;BME280;40509;32.858;-116.858;2023-08-21T09:58:19;97941.34;;;25.43;53.96
53900;BME280;40509;32.858;-116.858;2023-08-21T10:00:46;97939.38;;;25.45;53.75
53900;BME280;40509;32.858;-116.858;2023-08-21T10:03:15;97939.38;;;25.45;53.76
53900;BME280;40509;32.858;-116.858;2023-08-21T10:05:45;97944.47;;;25.47;53.56
53900;BME280;40509;32.858;-116.858;2023-08-21T10:08:13;97947.47;;;25.44;53.66
53900;BME280;40509;32.858;-116.858;2023-08-21T10:10:42;97948.59;;;25.49;53.61
53900;BME280;40509;32.858;-116.858;2023-08-21T10:13:09;97942.81;;;25.46;53.53
53900;BME280;40509;32.858;-116.858;2023-08-21T10:15:37;97953.38;;;25.46;53.72
53900;BME280;40509;32.858;-116.858;2023-08-21T10:20:47;97950.88;;;25.52;53.53
53900;BME280;40509;32.858;-116.858;2023-08-21T10:23:27;97951.59;;;25.46;53.58
53900;BME280;40509;32.858;-116.858;2023-08-21T10:26:05;97950.44;;;25.40;53.73
53900;BME280;40509;32.858;-116.858;2023-08-21T10:28:42;97956.75;;;25.39;53.69
53900;BME280;40509;32.858;-116.858;2023-08-21T10:33:58;97960.84;;;25.42;53.58
53900;BME280;40509;32.858;-116.858;2023-08-21T10:39:17;97966.19;;;25.25;53.98
53900;BME280;40509;32.858;-116.858;2023-08-21T10:41:58;97964.56;;;25.24;54.11
53900;BME280;40509;32.858;-116.858;2023-08-21T10:49:42;97973.31;;;25.25;53.91
53900;BME280;40509;32.858;-116.858;2023-08-21T10:52:09;97975.47;;;25.21;54.27
53900;BME280;40509;32.858;-116.858;2023-08-21T10:55:09;97979.13;;;25.20;53.99
53900;BME280;40509;32.858;-116.858;2023-08-21T10:57:33;97983.06;;;25.24;53.91
53900;BME280;40509;32.858;-116.858;2023-08-21T11:00:10;97984.88;;;25.24;53.98
53900;BME280;40509;32.858;-116.858;2023-08-21T11:02:38;97991.31;;;25.21;54.11
53900;BME280;40509;32.858;-116.858;2023-08-21T11:05:06;97991.69;;;25.18;54.00
53900;BME280;40509;32.858;-116.858;2023-08-21T11:07:37;97991.69;;;25.18;54.07
53900;BME280;40509;32.858;-116.858;2023-08-21T11:10:09;97990.03;;;25.17;54.22
53900;BME280;40509;32.858;-116.858;2023-08-21T11:12:36;97993.16;;;25.21;53.98
53900;BME280;40509;32.858;-116.858;2023-08-21T11:15:04;97991.00;;;25.16;53.95
53900;BME280;40509;32.858;-116.858;2023-08-21T11:17:32;97995.13;;;25.19;53.94
53900;BME280;40509;32.858;-116.858;2023-08-21T11:20:00;97992.78;;;25.24;53.96
53900;BME280;40509;32.858;-116.858;2023-08-21T11:24:58;98004.03;;;25.26;53.75
53900;BME280;40509;32.858;-116.858;2023-08-21T11:27:25;98017.88;;;25.28;53.63
53900;BME280;40509;32.858;-116.858;2023-08-21T11:29:52;98011.13;;;25.25;53.70
53900;BME280;40509;32.858;-116.858;2023-08-21T11:32:22;98011.94;;;25.34;53.44
53900;BME280;40509;32.858;-116.858;2023-08-21T11:34:53;98012.41;;;25.38;53.35
53900;BME280;40509;32.858;-116.858;2023-08-21T11:37:21;98010.44;;;25.32;53.52
53900;BME280;40509;32.858;-116.858;2023-08-21T11:39:50;98013.44;;;25.29;53.29
53900;BME280;40509;32.858;-116.858;2023-08-21T11:42:21;98009.13;;;25.28;53.71
53900;BME280;40509;32.858;-116.858;2023-08-21T11:44:52;98008.16;;;25.29;53.63
53900;BME280;40509;32.858;-116.858;2023-08-21T11:47:21;98017.75;;;25.21;53.76
53900;BME280;40509;32.858;-116.858;2023-08-21T11:49:49;98015.06;;;25.30;53.47
53900;BME280;40509;32.858;-116.858;2023-08-21T11:52:18;98013.94;;;25.24;53.63
53900;BME280;40509;32.858;-116.858;2023-08-21T11:54:47;98012.59;;;25.28;53.57
53900;BME280;40509;32.858;-116.858;2023-08-21T11:57:14;98016.13;;;25.20;53.67
53900;BME280;40509;32.858;-116.858;2023-08-21T11:59:41;98015.09;;;25.21;53.61
53900;BME280;40509;32.858;-116.858;2023-08-21T12:02:16;98012.47;;;25.21;53.69
53900;BME280;40509;32.858;-116.858;2023-08-21T12:04:44;98014.09;;;25.22;53.52
53900;BME280;40509;32.858;-116.858;2023-08-21T12:07:12;98022.03;;;25.22;53.55
53900;BME280;40509;32.858;-116.858;2023-08-21T12:09:38;98013.97;;;25.16;53.80
53900;BME280;40509;32.858;-116.858;2023-08-21T12:12:06;98025.69;;;25.13;53.80
53900;BME280;40509;32.858;-116.858;2023-08-21T12:14:33;98031.84;;;25.14;53.79
53900;BME280;40509;32.858;-116.858;2023-08-21T12:17:00;98024.72;;;25.14;53.93
53900;BME280;40509;32.858;-116.858;2023-08-21T12:19:26;98033.44;;;25.15;53.76
53900;BME280;40509;32.858;-116.858;2023-08-21T12:21:54;98033.75;;;25.20;53.54
53900;BME280;40509;32.858;-116.858;2023-08-21T12:24:20;98032.59;;;25.22;53.44
53900;BME280;40509;32.858;-116.858;2023-08-21T12:26:47;98041.50;;;25.21;53.55
53900;BME280;40509;32.858;-116.858;2023-08-21T12:29:14;98044.19;;;25.13;53.72
53900;BME280;40509;32.858;-116.858;2023-08-21T12:31:41;98053.25;;;25.19;53.29
53900;BME280;40509;32.858;-116.858;2023-08-21T12:34:08;98053.78;;;25.14;53.73
53900;BME280;40509;32.858;-116.858;2023-08-21T12:36:35;98051.63;;;25.18;53.71
53900;BME280;40509;32.858;-116.858;2023-08-21T12:39:09;98052.94;;;25.22;53.42
53900;BME280;40509;32.858;-116.858;2023-08-21T12:41:36;98064.00;;;25.17;53.61
53900;BME280;40509;32.858;-116.858;2023-08-21T12:44:03;98060.19;;;25.20;53.42
53900;BME280;40509;32.858;-116.858;2023-08-21T12:46:30;98059.69;;;25.24;53.23
53900;BME280;40509;32.858;-116.858;2023-08-21T12:48:57;98062.34;;;25.16;53.59
53900;BME280;40509;32.858;-116.858;2023-08-21T12:51:25;98068.09;;;25.20;53.59
53900;BME280;40509;32.858;-116.858;2023-08-21T12:53:52;98063.34;;;25.15;53.45
53900;BME280;40509;32.858;-116.858;2023-08-21T12:56:19;98071.94;;;25.09;53.74